Time;durP1;ratioP1;P1;durP2;ratioP2;P2;SDS_P1;SDS_P2;PMS_P1;PMS_P2;Temp;Humidity;BMP_temperature;BMP_pressure;BME280_temperature;BME280_humidity;BME280_pressure;Samples;Min_cycle;Max_cycle;Signal;HPM_P1;HPM_P2
2023/10/02 00:01:23;;;;;;;13.28;6.62;;;;;;;;;;1754695;80;25557;-53
2023/10/02 00:06:40;;;;;;;10.18;6.45;;;;;;;;;;1755838;79;26179;-53
2023/10/02 00:09:04;;;;;;;13.25;7.00;;;;;;;;;;1729664;80;25791;-52
2023/10/02 00:11:36;;;;;;;16.20;6.45;;;;;;;;;;1736610;80;27893;-52
2023/10/02 00:14:19;;;;;;;11.25;6.58;;;;;;;;;;1778175;80;26062;-52
2023/10/02 00:17:03;;;;;;;11.38;6.87;;;;;;;;;;1777857;79;25876;-53
2023/10/02 00:19:36;;;;;;;11.03;7.03;;;;;;;;;;1738731;79;25683;-54
2023/10/02 00:22:34;;;;;;;18.20;9.03;;;;;;;;;;1741355;79;25680;-53
2023/10/02 00:24:45;;;;;;;19.32;9.28;;;;;;;;;;1756041;79;27440;-56
2023/10/02 00:27:11;;;;;;;16.55;9.63;;;;;;;;;;1756729;80;25413;-53
2023/10/02 00:29:51;;;;;;;22.22;12.25;;;;;;;;;;1764805;80;25461;-53
2023/10/02 00:32:11;;;;;;;23.30;12.45;;;;;;;;;;1742128;80;26055;-57
2023/10/02 00:34:36;;;;;;;30.75;15.88;;;;;;;;;;1774880;79;25718;-57
2023/10/02 00:37:06;;;;;;;38.08;18.45;;;;;;;;;;1758386;80;27569;-57
2023/10/02 00:39:37;;;;;;;50.40;25.68;;;;;;;;;;1732018;80;26056;-54
2023/10/02 00:42:15;;;;;;;55.00;27.80;;;;;;;;;;1768384;80;25773;-54
2023/10/02 00:47:41;;;;;;;28.27;15.48;;;;;;;;;;1760073;80;25765;-53
2023/10/02 00:50:19;;;;;;;26.57;14.10;;;;;;;;;;1762437;80;27787;-54
2023/10/02 00:53:02;;;;;;;15.75;9.73;;;;;;;;;;1752916;80;25646;-52
2023/10/02 00:55:35;;;;;;;14.98;8.73;;;;;;;;;;1752155;80;25440;-53
2023/10/02 00:58:04;;;;;;;13.83;7.37;;;;;;;;;;1763592;79;26685;-54
2023/10/02 01:00:35;;;;;;;12.13;7.55;;;;;;;;;;1755187;80;25408;-51
2023/10/02 01:03:01;;;;;;;12.55;7.10;;;;;;;;;;1764172;80;27411;-51
2023/10/02 01:05:50;;;;;;;12.23;6.65;;;;;;;;;;1765738;80;25513;-52
2023/10/02 01:08:23;;;;;;;10.98;7.17;;;;;;;;;;1767123;79;25610;-53
2023/10/02 01:10:59;;;;;;;11.10;6.80;;;;;;;;;;1764641;80;25799;-53
2023/10/02 01:13:34;;;;;;;13.28;6.83;;;;;;;;;;1766095;80;25514;-53
2023/10/02 01:16:07;;;;;;;12.10;7.08;;;;;;;;;;1750852;80;27390;-54
2023/10/02 01:18:31;;;;;;;;;;;;;;;;;;1750950;79;25452;-56
2023/10/02 01:21:00;;;;;;;13.28;6.85;;;;;;;;;;1773723;79;25807;-55
2023/10/02 01:23:27;;;;;;;;;;;;;;;;;;1778275;80;25503;-56
2023/10/02 01:25:57;;;;;;;10.10;6.67;;;;;;;;;;1770278;80;25615;-56
2023/10/02 01:28:28;;;;;;;13.78;7.22;;;;;;;;;;1765461;80;28128;-54
2023/10/02 01:30:55;;;;;;;11.93;6.53;;;;;;;;;;1750375;80;25483;-55
2023/10/02 01:33:26;;;;;;;9.68;6.40;;;;;;;;;;1771707;80;26183;-56
2023/10/02 01:35:56;;;;;;;14.75;6.60;;;;;;;;;;1758186;80;25515;-51
2023/10/02 01:38:32;;;;;;;15.78;7.87;;;;;;;;;;1762833;80;25471;-54
2023/10/02 01:41:10;;;;;;;12.50;7.35;;;;;;;;;;1762021;79;28001;-52
2023/10/02 01:43:39;;;;;;;10.48;7.28;;;;;;;;;;1770098;80;25868;-53
2023/10/02 01:46:07;;;;;;;13.38;7.37;;;;;;;;;;1750359;80;25417;-51
2023/10/02 01:48:40;;;;;;;10.20;6.45;;;;;;;;;;1779754;80;25585;-55
2023/10/02 01:51:20;;;;;;;15.55;8.98;;;;;;;;;;1754311;80;25444;-54
2023/10/02 01:53:50;;;;;;;14.85;8.60;;;;;;;;;;1766171;79;27483;-53
2023/10/02 01:56:18;;;;;;;13.08;8.65;;;;;;;;;;1771712;79;25597;-52
2023/10/02 01:58:48;;;;;;;12.00;8.48;;;;;;;;;;1764189;80;25578;-54
2023/10/02 02:01:15;;;;;;;12.07;7.42;;;;;;;;;;1756481;80;25720;-52
2023/10/02 02:03:48;;;;;;;13.30;7.90;;;;;;;;;;1757168;80;25369;-55
2023/10/02 02:06:22;;;;;;;15.28;7.33;;;;;;;;;;1752172;79;27880;-51
2023/10/02 02:08:53;;;;;;;12.95;7.20;;;;;;;;;;1768856;80;25525;-52
2023/10/02 02:11:21;;;;;;;15.50;8.08;;;;;;;;;;1754701;80;25734;-51
2023/10/02 02:13:50;;;;;;;9.70;7.20;;;;;;;;;;1747325;80;25482;-52
2023/10/02 02:16:31;;;;;;;14.55;7.25;;;;;;;;;;1765208;80;25788;-52
2023/10/02 02:18:54;;;;;;;11.25;6.92;;;;;;;;;;1776136;80;27597;-52
2023/10/02 02:21:24;;;;;;;11.40;6.95;;;;;;;;;;1752084;80;25796;-53
2023/10/02 02:24:04;;;;;;;10.43;7.00;;;;;;;;;;1743987;80;25767;-50
2023/10/02 02:26:33;;;;;;;;;;;;;;;;;;1759256;80;25775;-52
2023/10/02 02:29:01;;;;;;;8.55;6.17;;;;;;;;;;1747081;80;25427;-52
2023/10/02 02:31:30;;;;;;;11.80;6.83;;;;;;;;;;1765706;79;27000;-52
2023/10/02 02:34:01;;;;;;;11.63;7.17;;;;;;;;;;1765004;80;25428;-51
2023/10/02 02:36:28;;;;;;;13.72;7.25;;;;;;;;;;1754846;80;25559;-52
2023/10/02 02:39:17;;;;;;;14.40;6.47;;;;;;;;;;1757426;80;25798;-51
2023/10/02 02:42:18;;;;;;;21.25;7.42;;;;;;;;;;1711030;82;25598;-56
2023/10/02 02:44:51;;;;;;;11.25;6.90;;;;;;;;;;1737426;82;28267;-55
2023/10/02 02:47:50;;;;;;;13.70;7.05;;;;;;;;;;1740406;82;25483;-56
2023/10/02 02:49:51;;;;;;;15.60;8.70;;;;;;;;;;1740544;82;25841;-55
2023/10/02 02:52:32;;;;;;;20.32;10.70;;;;;;;;;;1741867;82;26114;-56
2023/10/02 02:55:04;;;;;;;12.07;8.68;;;;;;;;;;1742809;81;26197;-51
2023/10/02 02:57:31;;;;;;;18.30;11.35;;;;;;;;;;1741136;82;28348;-52
2023/10/02 03:02:52;;;;;;;17.42;10.13;;;;;;;;;;1740352;82;25751;-51
2023/10/02 03:05:21;;;;;;;18.40;10.85;;;;;;;;;;1742506;82;25607;-52
2023/10/02 03:07:49;;;;;;;16.35;10.65;;;;;;;;;;1742187;82;26448;-51
2023/10/02 03:10:17;;;;;;;16.52;9.58;;;;;;;;;;1741416;82;27652;-51
2023/10/02 03:12:45;;;;;;;13.88;8.65;;;;;;;;;;1711161;83;25673;-50
2023/10/02 03:15:13;;;;;;;14.95;8.48;;;;;;;;;;1747061;80;25886;-51
2023/10/02 03:17:41;;;;;;;15.32;8.85;;;;;;;;;;1771852;80;25768;-51
2023/10/02 03:20:23;;;;;;;13.75;8.00;;;;;;;;;;1758576;80;25429;-54
2023/10/02 03:22:55;;;;;;;14.28;7.70;;;;;;;;;;1760682;80;27561;-52
2023/10/02 03:25:28;;;;;;;14.80;8.15;;;;;;;;;;1777142;80;25813;-51
2023/10/02 03:27:55;;;;;;;12.45;7.05;;;;;;;;;;1772114;80;25467;-52
2023/10/02 03:30:40;;;;;;;13.48;8.00;;;;;;;;;;1752231;80;25579;-51
2023/10/02 03:33:17;;;;;;;12.58;6.87;;;;;;;;;;1744895;80;25863;-51
2023/10/02 03:35:40;;;;;;;10.60;7.15;;;;;;;;;;1761874;80;28317;-51
2023/10/02 03:38:05;;;;;;;9.38;6.50;;;;;;;;;;1748319;80;25434;-51
2023/10/02 03:40:32;;;;;;;11.95;6.55;;;;;;;;;;1755538;80;29891;-54
2023/10/02 03:43:18;;;;;;;11.10;7.22;;;;;;;;;;1777348;80;25462;-51
2023/10/02 03:45:38;;;;;;;8.93;7.62;;;;;;;;;;1759279;80;25390;-52
2023/10/02 03:48:02;;;;;;;12.00;7.08;;;;;;;;;;1768784;80;27545;-52
2023/10/02 03:50:24;;;;;;;11.03;7.28;;;;;;;;;;1768251;80;25436;-52
2023/10/02 03:53:12;;;;;;;13.30;7.67;;;;;;;;;;1769488;80;25576;-55
2023/10/02 03:55:18;;;;;;;11.33;7.47;;;;;;;;;;1742073;80;25406;-51
2023/10/02 03:57:47;;;;;;;16.27;8.20;;;;;;;;;;1772170;80;32524;-55
2023/10/02 04:00:42;;;;;;;12.23;8.15;;;;;;;;;;1740063;80;29739;-54
2023/10/02 04:02:59;;;;;;;13.30;8.65;;;;;;;;;;1749194;80;26104;-55
2023/10/02 04:08:21;;;;;;;15.78;9.45;;;;;;;;;;1760498;80;26596;-51
2023/10/02 04:10:56;;;;;;;17.95;10.00;;;;;;;;;;1768699;80;25466;-52
2023/10/02 04:13:27;;;;;;;16.50;9.53;;;;;;;;;;1747651;80;27422;-55
2023/10/02 04:15:58;;;;;;;15.75;10.08;;;;;;;;;;1766158;80;25512;-55
2023/10/02 04:21:12;;;;;;;16.73;9.88;;;;;;;;;;1759402;79;25786;-55
2023/10/02 04:23:42;;;;;;;18.42;10.85;;;;;;;;;;1759093;80;25494;-53
2023/10/02 04:26:20;;;;;;;;;;;;;;;;;;1770922;80;28238;-53
2023/10/02 04:28:55;;;;;;;;;;;;;;;;;;1756623;80;25467;-55
2023/10/02 04:31:30;;;;;;;15.75;9.50;;;;;;;;;;1760878;80;25727;-53
2023/10/02 04:34:15;;;;;;;12.50;7.90;;;;;;;;;;1762795;80;25607;-54
2023/10/02 04:36:34;;;;;;;10.48;7.75;;;;;;;;;;1771421;80;25460;-54
2023/10/02 04:39:04;;;;;;;13.80;7.17;;;;;;;;;;1769284;79;27490;-53
2023/10/02 04:41:37;;;;;;;10.68;8.43;;;;;;;;;;1764537;80;25859;-52
2023/10/02 04:43:58;;;;;;;14.85;8.25;;;;;;;;;;1762538;80;25525;-52
2023/10/02 04:46:28;;;;;;;12.60;7.58;;;;;;;;;;1766190;80;35472;-55
2023/10/02 04:48:59;;;;;;;13.50;8.63;;;;;;;;;;1754948;80;25304;-52
2023/10/02 04:51:22;;;;;;;20.37;10.15;;;;;;;;;;1755500;80;27573;-52
2023/10/02 04:53:48;;;;;;;17.07;9.55;;;;;;;;;;1772742;80;32892;-52
2023/10/02 04:58:50;;;;;;;16.35;10.05;;;;;;;;;;1752749;80;25398;-52
2023/10/02 05:01:41;;;;;;;15.18;10.05;;;;;;;;;;1765106;80;25784;-55
2023/10/02 05:04:06;;;;;;;16.57;9.80;;;;;;;;;;1738875;82;28088;-55
2023/10/02 05:06:44;;;;;;;20.05;9.15;;;;;;;;;;1741096;82;25568;-54
2023/10/02 05:09:20;;;;;;;14.70;9.33;;;;;;;;;;1740090;82;25765;-55
2023/10/02 05:11:55;;;;;;;18.52;10.25;;;;;;;;;;1731221;82;25742;-55
2023/10/02 05:14:29;;;;;;;23.70;11.05;;;;;;;;;;1719402;81;25499;-51
2023/10/02 05:22:27;;;;;;;15.08;11.33;;;;;;;;;;1667005;84;25852;-53
2023/10/02 05:24:58;;;;;;;20.00;12.03;;;;;;;;;;1742426;82;26161;-53
2023/10/02 05:27:30;;;;;;;22.15;12.05;;;;;;;;;;1718159;82;25889;-54
2023/10/02 05:29:58;;;;;;;21.95;12.75;;;;;;;;;;1736712;81;27571;-53
2023/10/02 05:32:31;;;;;;;20.37;12.35;;;;;;;;;;1730521;82;26415;-55
2023/10/02 05:34:59;;;;;;;15.00;11.70;;;;;;;;;;1730224;82;25482;-54
2023/10/02 05:37:31;;;;;;;20.52;12.70;;;;;;;;;;1701174;81;25984;-56
2023/10/02 05:40:27;;;;;;;21.25;13.18;;;;;;;;;;1702074;83;25523;-52
2023/10/02 05:42:22;;;;;;;18.42;13.70;;;;;;;;;;1704211;83;28285;-54
2023/10/02 05:44:48;;;;;;;21.97;13.48;;;;;;;;;;1696403;83;32816;-55
2023/10/02 05:47:17;;;;;;;19.40;13.20;;;;;;;;;;1726866;81;25466;-53
2023/10/02 05:49:47;;;;;;;18.70;11.30;;;;;;;;;;1735715;81;25916;-55
2023/10/02 05:52:12;;;;;;;20.07;11.10;;;;;;;;;;1726080;81;25558;-55
2023/10/02 05:54:40;;;;;;;18.52;11.90;;;;;;;;;;1733896;81;27339;-55
2023/10/02 05:57:08;;;;;;;21.70;11.40;;;;;;;;;;1762896;80;25777;-56
2023/10/02 05:59:54;;;;;;;19.30;13.22;;;;;;;;;;1742049;80;25749;-52
2023/10/02 06:02:22;;;;;;;21.05;13.13;;;;;;;;;;1770428;80;25775;-53
2023/10/02 06:04:52;;;;;;;21.85;14.38;;;;;;;;;;1752061;80;25391;-55
2023/10/02 06:07:43;;;;;;;21.68;13.10;;;;;;;;;;1756840;80;28128;-53
2023/10/02 06:10:26;;;;;;;19.80;13.43;;;;;;;;;;1758880;80;25732;-55
2023/10/02 06:13:05;;;;;;;19.02;12.28;;;;;;;;;;1757356;80;25733;-54
2023/10/02 06:15:48;;;;;;;19.35;12.55;;;;;;;;;;1753793;80;25809;-53
2023/10/02 06:18:27;;;;;;;18.32;12.85;;;;;;;;;;1752914;80;25819;-56
2023/10/02 06:21:00;;;;;;;16.85;12.68;;;;;;;;;;1759470;80;27237;-54
2023/10/02 06:23:29;;;;;;;21.48;13.08;;;;;;;;;;1754341;80;25714;-54
2023/10/02 06:25:59;;;;;;;;;;;;;;;;;;1757395;80;25390;-53
2023/10/02 06:28:27;;;;;;;18.77;11.97;;;;;;;;;;1758706;80;25812;-54
2023/10/02 06:30:57;;;;;;;24.70;12.82;;;;;;;;;;1767910;80;25579;-53
2023/10/02 06:33:23;;;;;;;19.85;12.68;;;;;;;;;;1771594;80;27529;-53
2023/10/02 06:35:57;;;;;;;20.52;12.30;;;;;;;;;;1778967;80;25851;-52
2023/10/02 06:38:24;;;;;;;24.20;13.20;;;;;;;;;;1764657;80;25441;-52
2023/10/02 06:41:07;;;;;;;16.35;11.83;;;;;;;;;;1749335;80;25756;-52
2023/10/02 06:43:32;;;;;;;16.93;12.23;;;;;;;;;;1752336;80;25428;-51
2023/10/02 06:46:09;;;;;;;16.55;12.40;;;;;;;;;;1752836;80;28405;-55
2023/10/02 06:48:39;;;;;;;22.82;12.43;;;;;;;;;;1775936;80;25450;-53
2023/10/02 06:51:07;;;;;;;21.15;12.53;;;;;;;;;;1766167;80;25839;-53
2023/10/02 06:53:34;;;;;;;17.70;12.45;;;;;;;;;;1751234;80;25614;-56
2023/10/02 06:56:06;;;;;;;19.60;11.65;;;;;;;;;;1741666;81;25378;-54
2023/10/02 06:58:29;;;;;;;16.30;12.63;;;;;;;;;;1748868;80;26833;-53
2023/10/02 07:00:55;;;;;;;19.05;12.03;;;;;;;;;;1745742;81;25619;-55
2023/10/02 07:03:22;;;;;;;17.35;12.15;;;;;;;;;;1755043;80;25618;-54
2023/10/02 07:05:48;;;;;;;18.42;11.33;;;;;;;;;;1750582;80;25420;-54
2023/10/02 07:08:18;;;;;;;16.00;11.05;;;;;;;;;;1748607;81;25451;-55
2023/10/02 07:10:58;;;;;;;15.85;11.53;;;;;;;;;;1751492;81;27336;-55
2023/10/02 07:13:25;;;;;;;27.37;12.65;;;;;;;;;;1748172;81;25492;-51
2023/10/02 07:15:57;;;;;;;18.85;11.53;;;;;;;;;;1753306;81;25633;-52
2023/10/02 07:18:38;;;;;;;15.13;10.95;;;;;;;;;;1753003;81;25898;-52
2023/10/02 07:21:07;;;;;;;20.68;12.63;;;;;;;;;;1744335;80;25835;-54
2023/10/02 07:23:37;;;;;;;19.75;11.15;;;;;;;;;;1749057;81;27701;-53
2023/10/02 07:26:04;;;;;;;21.17;11.00;;;;;;;;;;1756460;81;25488;-54
2023/10/02 07:28:30;;;;;;;27.00;12.07;;;;;;;;;;1748821;81;25850;-52
2023/10/02 07:30:59;;;;;;;18.55;11.10;;;;;;;;;;1753581;81;25498;-52
2023/10/02 07:33:26;;;;;;;20.48;10.50;;;;;;;;;;1753252;81;25628;-51
2023/10/02 07:35:54;;;;;;;15.13;10.78;;;;;;;;;;1749695;80;27320;-55
2023/10/02 07:38:22;;;;;;;17.57;10.33;;;;;;;;;;1720927;82;25367;-53
2023/10/02 07:40:49;;;;;;;19.52;10.05;;;;;;;;;;1741244;80;25454;-54
2023/10/02 07:43:19;;;;;;;19.27;9.18;;;;;;;;;;1742492;81;25848;-52
2023/10/02 07:46:02;;;;;;;18.15;9.53;;;;;;;;;;1742801;81;25420;-53
2023/10/02 07:48:33;;;;;;;16.42;9.60;;;;;;;;;;1749794;81;27862;-56
2023/10/02 07:50:59;;;;;;;17.70;9.50;;;;;;;;;;1749803;81;25793;-52
2023/10/02 07:53:38;;;;;;;19.62;8.98;;;;;;;;;;1752075;81;25891;-54
2023/10/02 07:55:53;;;;;;;16.77;9.08;;;;;;;;;;1734308;81;25756;-54
2023/10/02 07:58:19;;;;;;;16.17;9.10;;;;;;;;;;1739863;82;25400;-53
2023/10/02 08:00:49;;;;;;;18.10;8.95;;;;;;;;;;1747571;81;27978;-55
2023/10/02 08:03:32;;;;;;;15.18;8.58;;;;;;;;;;1747091;81;25741;-57
2023/10/02 08:06:01;;;;;;;18.30;7.60;;;;;;;;;;1756223;80;25502;-51
2023/10/02 08:08:32;;;;;;;12.90;7.42;;;;;;;;;;1746972;81;32292;-53
2023/10/02 08:10:56;;;;;;;;;;;;;;;;;;1747024;80;25810;-52
2023/10/02 08:13:48;;;;;;;13.15;7.47;;;;;;;;;;1750240;81;27451;-54
2023/10/02 08:16:14;;;;;;;14.98;6.97;;;;;;;;;;1756682;81;25824;-52
2023/10/02 08:18:58;;;;;;;16.70;7.45;;;;;;;;;;1745391;80;25412;-54
2023/10/02 08:23:59;;;;;;;17.98;7.42;;;;;;;;;;1724314;82;25586;-55
2023/10/02 08:26:24;;;;;;;18.27;7.50;;;;;;;;;;1725342;82;27313;-54
2023/10/02 08:28:52;;;;;;;14.80;6.85;;;;;;;;;;1725493;82;25521;-53
2023/10/02 08:31:18;;;;;;;13.20;7.05;;;;;;;;;;1723803;82;25746;-56
2023/10/02 08:33:45;;;;;;;13.83;6.65;;;;;;;;;;1726404;82;25596;-53
2023/10/02 08:36:13;;;;;;;18.40;6.55;;;;;;;;;;1723061;82;25346;-54
2023/10/02 08:38:49;;;;;;;13.78;6.67;;;;;;;;;;1724182;82;28365;-55
2023/10/02 08:41:10;;;;;;;11.00;6.28;;;;;;;;;;1717029;82;25495;-53
2023/10/02 08:43:42;;;;;;;13.22;6.35;;;;;;;;;;1723531;82;25674;-56
2023/10/02 08:46:19;;;;;;;10.98;6.25;;;;;;;;;;1724304;82;25527;-56
2023/10/02 08:48:42;;;;;;;10.20;6.50;;;;;;;;;;1724602;82;25442;-56
2023/10/02 08:51:09;;;;;;;15.83;6.28;;;;;;;;;;1720717;82;27324;-54
2023/10/02 08:53:35;;;;;;;17.67;6.20;;;;;;;;;;1716269;81;25689;-55
2023/10/02 08:56:06;;;;;;;12.20;5.95;;;;;;;;;;1743766;81;25684;-55
2023/10/02 08:58:34;;;;;;;12.98;5.33;;;;;;;;;;1724180;81;25836;-55
2023/10/02 09:03:41;;;;;;;11.00;5.30;;;;;;;;;;1740299;81;27782;-56
2023/10/02 09:06:27;;;;;;;13.85;6.03;;;;;;;;;;1742871;81;25409;-56
2023/10/02 09:11:41;;;;;;;11.65;5.55;;;;;;;;;;1747989;80;25521;-58
2023/10/02 09:17:07;;;;;;;9.00;6.00;;;;;;;;;;1747985;80;27198;-58
2023/10/02 09:19:31;;;;;;;76.90;50.90;;;;;;;;;;1746506;80;25485;-58
2023/10/02 09:22:07;;;;;;;11.10;5.97;;;;;;;;;;1756933;81;25744;-58
2023/10/02 09:24:27;;;;;;;13.53;4.67;;;;;;;;;;1749067;80;25879;-50
2023/10/02 09:26:57;;;;;;;10.32;4.72;;;;;;;;;;1741562;81;25553;-53
2023/10/02 09:29:23;;;;;;;10.32;4.97;;;;;;;;;;1743657;81;27397;-51
2023/10/02 09:31:49;;;;;;;11.60;5.15;;;;;;;;;;1754633;81;25451;-52
2023/10/02 09:34:20;;;;;;;11.48;4.95;;;;;;;;;;1751497;81;25386;-50
2023/10/02 09:36:53;;;;;;;13.60;4.53;;;;;;;;;;1752428;80;26270;-52
2023/10/02 09:39:36;;;;;;;10.15;5.22;;;;;;;;;;1751835;81;25727;-53
2023/10/02 09:42:05;;;;;;;12.10;4.40;;;;;;;;;;1748905;80;27399;-50
2023/10/02 09:44:29;;;;;;;9.65;5.05;;;;;;;;;;1752654;81;25404;-51
2023/10/02 09:46:55;;;;;;;13.15;4.37;;;;;;;;;;1742445;80;25501;-50
2023/10/02 09:49:24;;;;;;;10.43;4.67;;;;;;;;;;1748516;81;25891;-50
2023/10/02 09:52:10;;;;;;;8.63;5.08;;;;;;;;;;1749142;80;32327;-51
2023/10/02 09:55:03;;;;;;;10.88;5.10;;;;;;;;;;1752164;81;27793;-49
2023/10/02 09:57:31;;;;;;;9.93;4.80;;;;;;;;;;1744274;81;25863;-50
2023/10/02 09:59:57;;;;;;;12.75;5.03;;;;;;;;;;1751014;80;25426;-51
2023/10/02 10:08:18;;;;;;;12.70;5.25;;;;;;;;;;1746257;81;27626;-54
2023/10/02 10:10:46;;;;;;;9.23;4.12;;;;;;;;;;1752327;81;25807;-50
2023/10/02 10:13:36;;;;;;;12.95;5.10;;;;;;;;;;1739341;81;25712;-51
2023/10/02 10:16:21;;;;;;;9.78;4.42;;;;;;;;;;1752240;80;25475;-49
2023/10/02 10:22:01;;;;;;;8.80;4.28;;;;;;;;;;1744861;81;27511;-51
2023/10/02 10:24:56;;;;;;;8.78;4.28;;;;;;;;;;1740757;81;29904;-50
2023/10/02 10:27:42;;;;;;;10.43;5.17;;;;;;;;;;1747968;81;25392;-50
2023/10/02 10:30:28;;;;;;;10.05;3.98;;;;;;;;;;1724302;82;25422;-49
2023/10/02 10:35:51;;;;;;;10.85;3.95;;;;;;;;;;1750100;80;27333;-55
2023/10/02 10:41:06;;;;;;;8.33;4.65;;;;;;;;;;1750787;80;25726;-52
2023/10/02 10:46:20;;;;;;;8.68;4.00;;;;;;;;;;1750927;81;25867;-54
2023/10/02 10:49:15;;;;;;;8.75;4.10;;;;;;;;;;1753293;81;27320;-53
2023/10/02 10:51:39;;;;;;;13.93;4.25;;;;;;;;;;1747917;81;25335;-53
2023/10/02 10:54:19;;;;;;;9.55;3.52;;;;;;;;;;1750297;80;25634;-55
2023/10/02 10:56:46;;;;;;;8.60;3.80;;;;;;;;;;1748343;81;25863;-54
2023/10/02 10:59:14;;;;;;;8.90;4.37;;;;;;;;;;1742085;81;25401;-54
2023/10/02 11:02:09;;;;;;;;;;;;;;;;;;1749854;80;27309;-54
2023/10/02 11:04:26;;;;;;;8.90;3.60;;;;;;;;;;1750453;81;25825;-54
2023/10/02 11:06:48;;;;;;;10.45;4.22;;;;;;;;;;1757262;80;25465;-56
2023/10/02 11:09:18;;;;;;;8.20;3.75;;;;;;;;;;1752614;81;25378;-52
2023/10/02 11:11:51;;;;;;;6.83;3.67;;;;;;;;;;1754092;81;25773;-53
2023/10/02 11:14:34;;;;;;;9.68;3.83;;;;;;;;;;1750752;81;27698;-52
2023/10/02 11:17:04;;;;;;;7.12;3.62;;;;;;;;;;1751055;81;25879;-49
2023/10/02 11:22:21;;;;;;;8.28;3.80;;;;;;;;;;1747897;81;25631;-56
2023/10/02 11:24:59;;;;;;;6.85;3.52;;;;;;;;;;1744493;81;25623;-57
2023/10/02 11:27:29;;;;;;;10.07;3.70;;;;;;;;;;1738362;81;27385;-56
2023/10/02 11:30:02;;;;;;;9.57;3.53;;;;;;;;;;1750421;81;25413;-56
2023/10/02 11:32:59;;;;;;;12.05;3.62;;;;;;;;;;1752089;81;25689;-54
2023/10/02 11:35:17;;;;;;;11.10;4.75;;;;;;;;;;1748640;81;25799;-54
2023/10/02 11:37:48;;;;;;;10.55;4.08;;;;;;;;;;1740111;81;25590;-53
2023/10/02 11:40:15;;;;;;;10.25;3.20;;;;;;;;;;1736122;81;27232;-53
2023/10/02 11:42:41;;;;;;;6.47;2.95;;;;;;;;;;1745149;81;25503;-56
2023/10/02 11:45:10;;;;;;;9.83;3.12;;;;;;;;;;1741726;81;25405;-56
2023/10/02 11:47:37;;;;;;;10.68;3.58;;;;;;;;;;1747662;81;25825;-56
2023/10/02 11:50:05;;;;;;;6.03;3.02;;;;;;;;;;1750633;80;25465;-54
2023/10/02 11:52:32;;;;;;;6.60;3.10;;;;;;;;;;1743976;81;27405;-55
2023/10/02 11:54:58;;;;;;;7.70;3.47;;;;;;;;;;1742883;81;25568;-52
2023/10/02 11:57:24;;;;;;;6.70;3.45;;;;;;;;;;1740248;81;25803;-54
2023/10/02 11:59:51;;;;;;;7.05;2.70;;;;;;;;;;1745868;81;26147;-52
2023/10/02 12:02:17;;;;;;;6.17;2.92;;;;;;;;;;1751322;81;25504;-51
2023/10/02 12:04:45;;;;;;;6.33;3.02;;;;;;;;;;1749497;81;27179;-53
2023/10/02 12:07:15;;;;;;;4.62;2.45;;;;;;;;;;1747951;81;25705;-52
2023/10/02 12:09:40;;;;;;;6.92;2.47;;;;;;;;;;1746824;81;25496;-52
2023/10/02 12:12:06;;;;;;;7.90;3.10;;;;;;;;;;1754163;81;25384;-52
2023/10/02 12:14:32;;;;;;;9.53;2.85;;;;;;;;;;1762121;80;25865;-52
2023/10/02 12:16:58;;;;;;;5.78;2.60;;;;;;;;;;1748948;81;27315;-52
2023/10/02 12:19:35;;;;;;;5.22;2.95;;;;;;;;;;1750269;80;25398;-49
2023/10/02 12:22:00;;;;;;;6.95;3.15;;;;;;;;;;1753540;81;25714;-52
2023/10/02 12:24:26;;;;;;;4.70;2.80;;;;;;;;;;1757738;81;25390;-53
2023/10/02 12:26:52;;;;;;;6.62;3.08;;;;;;;;;;1748421;81;25421;-50
2023/10/02 12:29:19;;;;;;;8.18;2.60;;;;;;;;;;1752856;81;27673;-52
2023/10/02 12:31:45;;;;;;;11.00;2.92;;;;;;;;;;1759591;80;25762;-50
2023/10/02 12:34:13;;;;;;;6.85;2.45;;;;;;;;;;1740843;79;25693;-49
2023/10/02 12:36:41;;;;;;;9.33;3.20;;;;;;;;;;1739188;80;25990;-50
2023/10/02 12:39:12;;;;;;;4.85;2.77;;;;;;;;;;1749361;80;32999;-51
2023/10/02 12:41:36;;;;;;;16.85;2.60;;;;;;;;;;1738613;81;27207;-52
2023/10/02 12:44:02;;;;;;;5.55;2.58;;;;;;;;;;1738323;80;25625;-52
2023/10/02 12:46:30;;;;;;;5.87;2.85;;;;;;;;;;1742861;81;25847;-51
2023/10/02 12:48:57;;;;;;;9.20;2.67;;;;;;;;;;1751932;81;26858;-54
2023/10/02 12:51:25;;;;;;;6.92;2.72;;;;;;;;;;1747890;80;25615;-51
2023/10/02 12:53:51;;;;;;;7.90;2.90;;;;;;;;;;1739842;80;27696;-50
2023/10/02 12:56:22;;;;;;;19.65;15.00;;;;;;;;;;1759001;81;25508;-53
2023/10/02 12:58:49;;;;;;;7.25;3.15;;;;;;;;;;1748125;81;25445;-49
2023/10/02 13:01:19;;;;;;;6.35;3.08;;;;;;;;;;1751514;81;25935;-50
2023/10/02 13:03:46;;;;;;;8.40;3.33;;;;;;;;;;1752248;81;25716;-50
2023/10/02 13:06:13;;;;;;;29.57;22.22;;;;;;;;;;1751830;81;27470;-50
2023/10/02 13:08:43;;;;;;;6.10;2.52;;;;;;;;;;1745636;81;25427;-50
2023/10/02 13:11:12;;;;;;;5.25;2.30;;;;;;;;;;1752219;81;25435;-50
2023/10/02 13:13:46;;;;;;;8.43;3.30;;;;;;;;;;1742795;81;26003;-50
2023/10/02 13:16:13;;;;;;;5.62;3.12;;;;;;;;;;1743588;81;25805;-49
2023/10/02 13:18:40;;;;;;;6.97;3.12;;;;;;;;;;1754268;81;27396;-50
2023/10/02 13:21:10;;;;;;;4.92;2.83;;;;;;;;;;1747977;80;25562;-49
2023/10/02 13:23:37;;;;;;;9.70;3.27;;;;;;;;;;1760309;80;25920;-51
2023/10/02 13:26:05;;;;;;;4.78;2.95;;;;;;;;;;1745538;81;25419;-50
2023/10/02 13:28:34;;;;;;;8.40;3.00;;;;;;;;;;1745863;81;25468;-51
2023/10/02 13:31:16;;;;;;;7.80;3.12;;;;;;;;;;1750159;81;27325;-50
2023/10/02 13:33:46;;;;;;;;;;;;;;;;;;1745474;81;25769;-51
2023/10/02 13:36:11;;;;;;;7.58;2.58;;;;;;;;;;1745283;80;25535;-50
2023/10/02 13:38:40;;;;;;;7.78;2.27;;;;;;;;;;1748274;80;25592;-50
2023/10/02 13:41:08;;;;;;;6.92;2.87;;;;;;;;;;1754774;81;25853;-50
2023/10/02 13:43:42;;;;;;;8.18;3.02;;;;;;;;;;1734595;81;27972;-51
2023/10/02 13:46:09;;;;;;;10.80;3.05;;;;;;;;;;1753091;81;25559;-51
2023/10/02 13:48:39;;;;;;;5.53;3.20;;;;;;;;;;1753770;81;25709;-49
2023/10/02 13:51:07;;;;;;;7.47;3.25;;;;;;;;;;1749064;81;25726;-51
2023/10/02 13:53:34;;;;;;;7.65;2.87;;;;;;;;;;1749405;81;25442;-54
2023/10/02 13:56:08;;;;;;;4.45;2.72;;;;;;;;;;1748113;81;27849;-52
2023/10/02 13:58:31;;;;;;;6.60;2.85;;;;;;;;;;1756942;80;25566;-52
2023/10/02 14:01:05;;;;;;;8.10;3.17;;;;;;;;;;1751766;81;25824;-57
2023/10/02 14:03:32;;;;;;;5.97;3.08;;;;;;;;;;1750835;80;25839;-57
2023/10/02 14:06:00;;;;;;;8.03;4.28;;;;;;;;;;1760381;80;25599;-55
2023/10/02 14:08:27;;;;;;;7.25;2.90;;;;;;;;;;1741674;81;27278;-66
2023/10/02 14:10:53;;;;;;;5.17;2.95;;;;;;;;;;1756635;80;25411;-64
2023/10/02 14:13:19;;;;;;;7.03;3.60;;;;;;;;;;1748641;81;25410;-64
2023/10/02 14:15:47;;;;;;;16.00;5.80;;;;;;;;;;1753655;81;26117;-68
2023/10/02 14:18:16;;;;;;;5.97;2.95;;;;;;;;;;1741682;81;25735;-66
2023/10/02 14:20:43;;;;;;;6.45;3.02;;;;;;;;;;1749005;81;28467;-65
2023/10/02 14:23:09;;;;;;;7.50;3.40;;;;;;;;;;1751690;81;25887;-65
2023/10/02 14:25:43;;;;;;;9.78;3.60;;;;;;;;;;1750870;81;25878;-65
2023/10/02 14:28:12;;;;;;;5.70;3.20;;;;;;;;;;1747829;81;25428;-65
2023/10/02 14:30:39;;;;;;;28.75;23.22;;;;;;;;;;1742780;81;25665;-66
2023/10/02 14:33:07;;;;;;;7.97;3.58;;;;;;;;;;1747027;81;28361;-64
2023/10/02 14:35:34;;;;;;;6.25;3.40;;;;;;;;;;1739612;82;25468;-65
2023/10/02 14:38:03;;;;;;;9.40;3.37;;;;;;;;;;1745612;81;25815;-64
2023/10/02 14:40:33;;;;;;;6.62;3.15;;;;;;;;;;1741670;81;25693;-63
2023/10/02 14:43:03;;;;;;;5.80;3.22;;;;;;;;;;1751567;81;25416;-67
2023/10/02 14:45:30;;;;;;;7.50;3.20;;;;;;;;;;1749682;81;27368;-67
2023/10/02 14:47:57;;;;;;;4.53;2.95;;;;;;;;;;1752215;81;25497;-67
2023/10/02 14:50:25;;;;;;;7.87;3.33;;;;;;;;;;1753019;81;25497;-68
2023/10/02 14:52:53;;;;;;;4.42;2.95;;;;;;;;;;1750070;81;25827;-68
2023/10/02 14:55:19;;;;;;;7.58;3.47;;;;;;;;;;1745566;81;25491;-69
2023/10/02 14:57:49;;;;;;;9.60;3.40;;;;;;;;;;1742618;81;28169;-68
2023/10/02 15:00:21;;;;;;;11.12;3.35;;;;;;;;;;1750083;80;26079;-70
2023/10/02 15:02:51;;;;;;;6.47;3.20;;;;;;;;;;1749985;81;25446;-66
2023/10/02 15:05:18;;;;;;;5.60;3.10;;;;;;;;;;1745730;81;25453;-67
2023/10/02 15:07:48;;;;;;;11.30;4.42;;;;;;;;;;1748023;80;25456;-67
2023/10/02 15:10:16;;;;;;;9.15;3.58;;;;;;;;;;1750768;80;28335;-66
2023/10/02 15:12:44;;;;;;;9.28;3.70;;;;;;;;;;1752792;81;25549;-66
2023/10/02 15:15:14;;;;;;;11.95;3.70;;;;;;;;;;1749308;81;25748;-66
2023/10/02 15:17:43;;;;;;;8.43;3.52;;;;;;;;;;1747044;81;25945;-66
2023/10/02 15:20:14;;;;;;;9.15;4.03;;;;;;;;;;1747789;81;25605;-67
2023/10/02 15:22:39;;;;;;;8.38;3.62;;;;;;;;;;1745807;81;27352;-67
2023/10/02 15:25:08;;;;;;;7.90;3.65;;;;;;;;;;1749683;81;25621;-67
2023/10/02 15:27:34;;;;;;;7.67;3.40;;;;;;;;;;1753997;81;25823;-67
2023/10/02 15:30:00;;;;;;;9.05;3.60;;;;;;;;;;1752132;80;25888;-67
2023/10/02 15:32:26;;;;;;;13.50;3.77;;;;;;;;;;1759883;80;25326;-66
2023/10/02 15:34:52;;;;;;;12.43;3.75;;;;;;;;;;1756226;81;27720;-66
2023/10/02 15:37:21;;;;;;;8.38;3.40;;;;;;;;;;1757184;81;25599;-66
2023/10/02 15:39:46;;;;;;;8.63;3.65;;;;;;;;;;1749439;80;25482;-67
2023/10/02 15:42:16;;;;;;;8.60;4.33;;;;;;;;;;1754486;81;25516;-66
2023/10/02 15:44:44;;;;;;;41.18;27.90;;;;;;;;;;1749602;80;25535;-68
2023/10/02 15:47:11;;;;;;;11.97;5.78;;;;;;;;;;1718223;82;27844;-68